sensor_id;sensor_type;location;lat;lon;timestamp;pressure;altitude;pressure_sealevel;temperature;humidity
70011;BME280;59543;37.950;-122.338;2023-10-09T00:02:14;100776.03;;;17.30;81.78
70011;BME280;59543;37.950;-122.338;2023-10-09T00:04:41;100772.00;;;17.26;82.79
70011;BME280;59543;37.950;-122.338;2023-10-09T00:07:08;100770.25;;;17.19;83.21
70011;BME280;59543;37.950;-122.338;2023-10-09T00:09:35;100769.19;;;17.20;82.72
70011;BME280;59543;37.950;-122.338;2023-10-09T00:14:42;100767.69;;;17.17;83.45
70011;BME280;59543;37.950;-122.338;2023-10-09T00:17:22;100766.88;;;17.17;83.16
70011;BME280;59543;37.950;-122.338;2023-10-09T00:19:49;100766.28;;;16.85;83.87
70011;BME280;59543;37.950;-122.338;2023-10-09T00:22:25;100761.63;;;16.79;84.76
70011;BME280;59543;37.950;-122.338;2023-10-09T00:24:57;100752.97;;;16.60;85.76
70011;BME280;59543;37.950;-122.338;2023-10-09T00:27:46;100751.38;;;16.66;86.23
70011;BME280;59543;37.950;-122.338;2023-10-09T00:30:14;100753.69;;;16.69;85.95
70011;BME280;59543;37.950;-122.338;2023-10-09T00:32:55;100748.94;;;16.41;86.98
70011;BME280;59543;37.950;-122.338;2023-10-09T00:35:25;100751.84;;;16.25;88.18
70011;BME280;59543;37.950;-122.338;2023-10-09T00:38:09;100756.78;;;16.36;87.92
70011;BME280;59543;37.950;-122.338;2023-10-09T00:40:55;100750.44;;;16.29;88.04
70011;BME280;59543;37.950;-122.338;2023-10-09T00:43:28;100750.72;;;16.34;88.12
70011;BME280;59543;37.950;-122.338;2023-10-09T00:45:57;100757.72;;;16.14;89.46
70011;BME280;59543;37.950;-122.338;2023-10-09T00:48:56;100756.97;;;16.05;90.61
70011;BME280;59543;37.950;-122.338;2023-10-09T00:51:24;100760.13;;;16.09;91.02
70011;BME280;59543;37.950;-122.338;2023-10-09T00:53:54;100755.53;;;15.94;92.21
70011;BME280;59543;37.950;-122.338;2023-10-09T00:56:23;100747.66;;;15.85;92.60
70011;BME280;59543;37.950;-122.338;2023-10-09T00:58:54;100752.50;;;15.74;92.33
70011;BME280;59543;37.950;-122.338;2023-10-09T01:01:46;100755.22;;;15.66;92.97
70011;BME280;59543;37.950;-122.338;2023-10-09T01:04:25;100743.09;;;15.62;94.21
70011;BME280;59543;37.950;-122.338;2023-10-09T01:06:54;100753.72;;;15.64;93.77
70011;BME280;59543;37.950;-122.338;2023-10-09T01:09:39;100768.22;;;15.56;94.15
70011;BME280;59543;37.950;-122.338;2023-10-09T01:12:09;100758.50;;;15.39;95.63
70011;BME280;59543;37.950;-122.338;2023-10-09T01:14:46;100756.63;;;15.39;95.97
70011;BME280;59543;37.950;-122.338;2023-10-09T01:17:18;100767.47;;;15.39;95.76
70011;BME280;59543;37.950;-122.338;2023-10-09T01:19:56;100770.91;;;15.33;96.14
70011;BME280;59543;37.950;-122.338;2023-10-09T01:22:29;100767.50;;;15.31;95.73
70011;BME280;59543;37.950;-122.338;2023-10-09T01:24:55;100770.28;;;15.23;95.84
70011;BME280;59543;37.950;-122.338;2023-10-09T01:27:21;100765.75;;;15.15;96.52
70011;BME280;59543;37.950;-122.338;2023-10-09T01:29:51;100767.75;;;15.21;96.08
70011;BME280;59543;37.950;-122.338;2023-10-09T01:32:17;100770.16;;;15.16;96.33
70011;BME280;59543;37.950;-122.338;2023-10-09T01:34:45;100773.56;;;15.10;97.07
70011;BME280;59543;37.950;-122.338;2023-10-09T01:37:19;100774.13;;;15.05;97.48
70011;BME280;59543;37.950;-122.338;2023-10-09T01:39:55;100760.16;;;14.85;98.49
70011;BME280;59543;37.950;-122.338;2023-10-09T01:42:30;100768.75;;;14.89;98.92
70011;BME280;59543;37.950;-122.338;2023-10-09T01:44:57;100768.63;;;14.82;99.28
70011;BME280;59543;37.950;-122.338;2023-10-09T01:47:41;100764.28;;;14.73;99.84
70011;BME280;59543;37.950;-122.338;2023-10-09T01:50:17;100771.09;;;14.61;100.00
70011;BME280;59543;37.950;-122.338;2023-10-09T01:52:56;100772.13;;;14.52;100.00
70011;BME280;59543;37.950;-122.338;2023-10-09T01:55:26;100762.47;;;14.49;100.00
70011;BME280;59543;37.950;-122.338;2023-10-09T01:58:01;100757.59;;;14.36;100.00
70011;BME280;59543;37.950;-122.338;2023-10-09T02:00:50;100768.09;;;14.31;100.00
70011;BME280;59543;37.950;-122.338;2023-10-09T02:03:27;100773.47;;;14.48;100.00
70011;BME280;59543;37.950;-122.338;2023-10-09T02:05:55;100773.66;;;14.38;100.00
70011;BME280;59543;37.950;-122.338;2023-10-09T02:08:43;100775.38;;;14.31;100.00
70011;BME280;59543;37.950;-122.338;2023-10-09T02:11:15;100783.16;;;14.34;100.00
70011;BME280;59543;37.950;-122.338;2023-10-09T02:13:53;100781.31;;;14.26;100.00
70011;BME280;59543;37.950;-122.338;2023-10-09T02:16:21;100787.72;;;14.25;100.00
70011;BME280;59543;37.950;-122.338;2023-10-09T02:19:07;100781.28;;;14.34;100.00
70011;BME280;59543;37.950;-122.338;2023-10-09T02:21:53;100778.06;;;14.31;100.00
70011;BME280;59543;37.950;-122.338;2023-10-09T02:24:24;100786.38;;;14.29;100.00
70011;BME280;59543;37.950;-122.338;2023-10-09T02:27:09;100783.97;;;14.34;100.00
70011;BME280;59543;37.950;-122.338;2023-10-09T02:29:37;100786.03;;;14.32;100.00
70011;BME280;59543;37.950;-122.338;2023-10-09T02:32:04;100786.72;;;14.26;100.00
70011;BME280;59543;37.950;-122.338;2023-10-09T02:34:40;100789.41;;;14.34;100.00
70011;BME280;59543;37.950;-122.338;2023-10-09T02:37:07;100790.94;;;14.29;100.00
70011;BME280;59543;37.950;-122.338;2023-10-09T02:39:39;100786.06;;;14.24;100.00
70011;BME280;59543;37.950;-122.338;2023-10-09T02:42:18;100784.03;;;14.26;100.00
70011;BME280;59543;37.950;-122.338;2023-10-09T02:44:52;100787.91;;;14.24;100.00
70011;BME280;59543;37.950;-122.338;2023-10-09T02:47:19;100795.53;;;14.20;100.00
70011;BME280;59543;37.950;-122.338;2023-10-09T02:50:06;100788.91;;;14.23;100.00
70011;BME280;59543;37.950;-122.338;2023-10-09T02:52:35;100792.16;;;14.18;100.00
70011;BME280;59543;37.950;-122.338;2023-10-09T02:55:06;100793.47;;;14.22;100.00
70011;BME280;59543;37.950;-122.338;2023-10-09T02:57:39;100808.03;;;14.21;100.00
70011;BME280;59543;37.950;-122.338;2023-10-09T03:00:07;100805.00;;;14.16;100.00
70011;BME280;59543;37.950;-122.338;2023-10-09T03:02:55;100808.72;;;14.07;100.00
70011;BME280;59543;37.950;-122.338;2023-10-09T03:05:26;100807.19;;;14.04;100.00
70011;BME280;59543;37.950;-122.338;2023-10-09T03:07:54;100809.06;;;14.04;100.00
70011;BME280;59543;37.950;-122.338;2023-10-09T03:10:24;100805.50;;;14.03;100.00
70011;BME280;59543;37.950;-122.338;2023-10-09T03:12:52;100825.28;;;13.95;100.00
70011;BME280;59543;37.950;-122.338;2023-10-09T03:15:19;100825.13;;;13.97;100.00
70011;BME280;59543;37.950;-122.338;2023-10-09T03:17:46;100826.16;;;13.96;100.00
70011;BME280;59543;37.950;-122.338;2023-10-09T03:20:16;100843.03;;;13.98;100.00
70011;BME280;59543;37.950;-122.338;2023-10-09T03:22:44;100839.00;;;14.02;100.00
70011;BME280;59543;37.950;-122.338;2023-10-09T03:25:11;100841.88;;;14.09;100.00
70011;BME280;59543;37.950;-122.338;2023-10-09T03:27:43;100846.44;;;14.00;100.00
70011;BME280;59543;37.950;-122.338;2023-10-09T03:30:16;100849.97;;;14.09;100.00
70011;BME280;59543;37.950;-122.338;2023-10-09T03:32:50;100853.19;;;13.96;100.00
70011;BME280;59543;37.950;-122.338;2023-10-09T03:35:20;100844.88;;;13.89;100.00
70011;BME280;59543;37.950;-122.338;2023-10-09T03:37:57;100845.56;;;13.91;100.00
70011;BME280;59543;37.950;-122.338;2023-10-09T03:40:26;100850.63;;;13.86;100.00
70011;BME280;59543;37.950;-122.338;2023-10-09T03:42:53;100844.22;;;13.79;100.00
70011;BME280;59543;37.950;-122.338;2023-10-09T03:45:20;100847.28;;;13.84;100.00
70011;BME280;59543;37.950;-122.338;2023-10-09T03:47:56;100848.94;;;13.85;100.00
70011;BME280;59543;37.950;-122.338;2023-10-09T03:50:49;100854.03;;;13.88;100.00
70011;BME280;59543;37.950;-122.338;2023-10-09T03:53:21;100854.03;;;13.88;100.00
70011;BME280;59543;37.950;-122.338;2023-10-09T03:55:47;100860.78;;;13.92;100.00
70011;BME280;59543;37.950;-122.338;2023-10-09T03:58:13;100859.75;;;14.02;100.00
70011;BME280;59543;37.950;-122.338;2023-10-09T04:00:40;100857.91;;;13.94;100.00
70011;BME280;59543;37.950;-122.338;2023-10-09T04:03:10;100858.41;;;13.89;100.00
70011;BME280;59543;37.950;-122.338;2023-10-09T04:05:37;100870.59;;;13.93;100.00
70011;BME280;59543;37.950;-122.338;2023-10-09T04:08:07;100881.41;;;13.93;100.00
70011;BME280;59543;37.950;-122.338;2023-10-09T04:10:38;100888.53;;;14.03;100.00
70011;BME280;59543;37.950;-122.338;2023-10-09T04:13:34;100898.16;;;14.05;100.00
70011;BME280;59543;37.950;-122.338;2023-10-09T04:16:03;100905.78;;;14.18;99.56
70011;BME280;59543;37.950;-122.338;2023-10-09T04:18:52;100917.94;;;14.06;100.00
70011;BME280;59543;37.950;-122.338;2023-10-09T04:21:18;100918.09;;;14.12;99.68
70011;BME280;59543;37.950;-122.338;2023-10-09T04:23:45;100917.91;;;13.98;99.91
70011;BME280;59543;37.950;-122.338;2023-10-09T04:26:30;100914.19;;;13.90;100.00
70011;BME280;59543;37.950;-122.338;2023-10-09T04:29:01;100914.88;;;13.84;100.00
70011;BME280;59543;37.950;-122.338;2023-10-09T04:31:28;100921.63;;;13.88;100.00
70011;BME280;59543;37.950;-122.338;2023-10-09T04:34:04;100918.59;;;13.91;100.00
70011;BME280;59543;37.950;-122.338;2023-10-09T04:37:02;100909.59;;;13.75;100.00
70011;BME280;59543;37.950;-122.338;2023-10-09T04:39:44;100901.34;;;13.84;100.00
70011;BME280;59543;37.950;-122.338;2023-10-09T04:42:27;100890.53;;;13.92;100.00
70011;BME280;59543;37.950;-122.338;2023-10-09T04:45:06;100900.13;;;13.87;100.00
70011;BME280;59543;37.950;-122.338;2023-10-09T04:47:34;100900.81;;;13.72;100.00
70011;BME280;59543;37.950;-122.338;2023-10-09T04:50:24;100918.25;;;13.78;100.00
70011;BME280;59543;37.950;-122.338;2023-10-09T04:52:56;100921.97;;;13.85;100.00
70011;BME280;59543;37.950;-122.338;2023-10-09T04:55:39;100923.63;;;13.86;100.00
70011;BME280;59543;37.950;-122.338;2023-10-09T04:58:10;100924.34;;;13.88;100.00
70011;BME280;59543;37.950;-122.338;2023-10-09T05:00:49;100934.31;;;13.96;100.00
70011;BME280;59543;37.950;-122.338;2023-10-09T05:03:25;100945.81;;;13.90;100.00
70011;BME280;59543;37.950;-122.338;2023-10-09T05:05:55;100940.56;;;13.97;100.00
70011;BME280;59543;37.950;-122.338;2023-10-09T05:08:26;100932.63;;;13.95;100.00
70011;BME280;59543;37.950;-122.338;2023-10-09T05:11:02;100937.84;;;13.88;100.00
70011;BME280;59543;37.950;-122.338;2023-10-09T05:13:33;100944.94;;;13.89;100.00
70011;BME280;59543;37.950;-122.338;2023-10-09T05:16:09;100946.13;;;13.87;100.00
70011;BME280;59543;37.950;-122.338;2023-10-09T05:18:46;100946.97;;;13.87;100.00
70011;BME280;59543;37.950;-122.338;2023-10-09T05:21:57;100946.13;;;13.79;100.00
70011;BME280;59543;37.950;-122.338;2023-10-09T05:24:18;100946.59;;;13.66;100.00
70011;BME280;59543;37.950;-122.338;2023-10-09T05:26:46;100946.50;;;13.49;100.00
70011;BME280;59543;37.950;-122.338;2023-10-09T05:29:18;100944.47;;;13.43;100.00
70011;BME280;59543;37.950;-122.338;2023-10-09T05:32:06;100943.16;;;13.56;100.00
70011;BME280;59543;37.950;-122.338;2023-10-09T05:34:42;100948.09;;;13.68;100.00
70011;BME280;59543;37.950;-122.338;2023-10-09T05:37:31;100954.84;;;13.64;100.00
70011;BME280;59543;37.950;-122.338;2023-10-09T05:40:09;100958.91;;;13.60;100.00
70011;BME280;59543;37.950;-122.338;2023-10-09T05:42:42;100953.00;;;13.65;100.00
70011;BME280;59543;37.950;-122.338;2023-10-09T05:45:10;100958.25;;;13.66;100.00
70011;BME280;59543;37.950;-122.338;2023-10-09T05:47:50;100941.00;;;13.67;100.00
70011;BME280;59543;37.950;-122.338;2023-10-09T05:50:21;100942.91;;;13.75;100.00
70011;BME280;59543;37.950;-122.338;2023-10-09T05:52:54;100943.22;;;13.72;100.00
70011;BME280;59543;37.950;-122.338;2023-10-09T05:55:25;100945.94;;;13.80;100.00
70011;BME280;59543;37.950;-122.338;2023-10-09T05:58:10;100938.53;;;13.90;100.00
70011;BME280;59543;37.950;-122.338;2023-10-09T06:00:54;100943.41;;;13.79;100.00
70011;BME280;59543;37.950;-122.338;2023-10-09T06:03:39;100955.06;;;13.79;100.00
70011;BME280;59543;37.950;-122.338;2023-10-09T06:06:21;100958.13;;;13.84;100.00
70011;BME280;59543;37.950;-122.338;2023-10-09T06:11:35;100938.50;;;13.82;100.00
70011;BME280;59543;37.950;-122.338;2023-10-09T06:14:05;100948.31;;;13.75;100.00
70011;BME280;59543;37.950;-122.338;2023-10-09T06:16:41;100952.38;;;13.79;100.00
70011;BME280;59543;37.950;-122.338;2023-10-09T06:19:12;100968.25;;;13.82;100.00
70011;BME280;59543;37.950;-122.338;2023-10-09T06:21:59;100979.06;;;13.82;100.00
70011;BME280;59543;37.950;-122.338;2023-10-09T06:24:39;100988.50;;;13.70;100.00
70011;BME280;59543;37.950;-122.338;2023-10-09T06:27:12;100997.94;;;13.66;100.00
70011;BME280;59543;37.950;-122.338;2023-10-09T06:29:39;101008.44;;;13.69;100.00
70011;BME280;59543;37.950;-122.338;2023-10-09T06:32:15;101000.84;;;13.81;100.00
70011;BME280;59543;37.950;-122.338;2023-10-09T06:34:51;101004.75;;;13.78;100.00
70011;BME280;59543;37.950;-122.338;2023-10-09T06:37:21;101012.06;;;13.94;100.00
70011;BME280;59543;37.950;-122.338;2023-10-09T06:39:53;101018.16;;;13.96;99.35
70011;BME280;59543;37.950;-122.338;2023-10-09T06:42:24;101005.63;;;13.95;99.33
70011;BME280;59543;37.950;-122.338;2023-10-09T06:45:03;101015.28;;;13.98;99.00
70011;BME280;59543;37.950;-122.338;2023-10-09T06:47:47;101017.16;;;13.97;99.37
70011;BME280;59543;37.950;-122.338;2023-10-09T06:50:22;101010.88;;;13.88;98.63
70011;BME280;59543;37.950;-122.338;2023-10-09T06:52:55;101006.16;;;13.99;98.67
70011;BME280;59543;37.950;-122.338;2023-10-09T06:55:41;101020.84;;;13.88;99.03
70011;BME280;59543;37.950;-122.338;2023-10-09T06:58:18;101013.41;;;13.90;98.56
70011;BME280;59543;37.950;-122.338;2023-10-09T07:00:55;101018.13;;;13.88;97.75
70011;BME280;59543;37.950;-122.338;2023-10-09T07:03:40;101025.00;;;13.74;98.04
70011;BME280;59543;37.950;-122.338;2023-10-09T07:06:19;101020.28;;;13.76;98.11
70011;BME280;59543;37.950;-122.338;2023-10-09T07:09:12;101027.38;;;13.77;98.23
70011;BME280;59543;37.950;-122.338;2023-10-09T07:11:44;101022.16;;;13.76;97.96
70011;BME280;59543;37.950;-122.338;2023-10-09T07:14:23;101022.16;;;13.76;98.20
70011;BME280;59543;37.950;-122.338;2023-10-09T07:16:56;101011.63;;;13.64;98.46
70011;BME280;59543;37.950;-122.338;2023-10-09T07:19:29;101009.47;;;13.76;98.34
70011;BME280;59543;37.950;-122.338;2023-10-09T07:22:18;101010.97;;;13.70;97.60
70011;BME280;59543;37.950;-122.338;2023-10-09T07:24:44;101000.63;;;13.58;97.66
70011;BME280;59543;37.950;-122.338;2023-10-09T07:27:18;101012.72;;;13.45;98.50
70011;BME280;59543;37.950;-122.338;2023-10-09T07:30:04;101016.50;;;13.61;98.08
70011;BME280;59543;37.950;-122.338;2023-10-09T07:32:50;101014.50;;;13.63;98.48
70011;BME280;59543;37.950;-122.338;2023-10-09T07:35:21;101015.66;;;13.60;98.90
70011;BME280;59543;37.950;-122.338;2023-10-09T07:38:26;101012.66;;;13.71;98.42
70011;BME280;59543;37.950;-122.338;2023-10-09T07:40:56;101011.81;;;13.71;98.53
70011;BME280;59543;37.950;-122.338;2023-10-09T07:43:45;101007.47;;;13.78;97.78
70011;BME280;59543;37.950;-122.338;2023-10-09T07:46:16;101014.41;;;13.89;97.16
70011;BME280;59543;37.950;-122.338;2023-10-09T07:49:05;101006.47;;;13.87;97.01
70011;BME280;59543;37.950;-122.338;2023-10-09T07:51:38;101002.72;;;13.72;97.77
70011;BME280;59543;37.950;-122.338;2023-10-09T07:54:05;101006.44;;;13.79;97.75
70011;BME280;59543;37.950;-122.338;2023-10-09T07:59:11;101012.66;;;13.71;96.65
70011;BME280;59543;37.950;-122.338;2023-10-09T08:04:29;101016.47;;;13.53;98.28
70011;BME280;59543;37.950;-122.338;2023-10-09T08:07:09;101025.22;;;13.46;98.79
70011;BME280;59543;37.950;-122.338;2023-10-09T08:09:37;101029.97;;;13.53;98.71
70011;BME280;59543;37.950;-122.338;2023-10-09T08:12:14;101032.88;;;13.59;98.81
70011;BME280;59543;37.950;-122.338;2023-10-09T08:14:58;101033.25;;;13.64;98.91
70011;BME280;59543;37.950;-122.338;2023-10-09T08:20:25;101046.34;;;13.85;97.76
70011;BME280;59543;37.950;-122.338;2023-10-09T08:22:55;101037.53;;;13.83;97.30
70011;BME280;59543;37.950;-122.338;2023-10-09T08:25:22;101030.47;;;13.90;96.95
70011;BME280;59543;37.950;-122.338;2023-10-09T08:27:56;101024.38;;;13.88;96.51
70011;BME280;59543;37.950;-122.338;2023-10-09T08:30:48;101028.63;;;13.91;96.67
70011;BME280;59543;37.950;-122.338;2023-10-09T08:33:17;101028.28;;;13.94;96.45
70011;BME280;59543;37.950;-122.338;2023-10-09T08:36:07;101035.66;;;13.84;96.88
70011;BME280;59543;37.950;-122.338;2023-10-09T08:38:35;101030.78;;;13.79;97.45
70011;BME280;59543;37.950;-122.338;2023-10-09T08:41:11;101020.00;;;13.87;97.39
70011;BME280;59543;37.950;-122.338;2023-10-09T08:43:50;101020.00;;;13.95;97.06
70011;BME280;59543;37.950;-122.338;2023-10-09T08:46:24;101018.34;;;14.03;96.77
70011;BME280;59543;37.950;-122.338;2023-10-09T08:48:57;101018.69;;;14.08;96.83
70011;BME280;59543;37.950;-122.338;2023-10-09T08:51:28;101018.69;;;14.08;96.43
70011;BME280;59543;37.950;-122.338;2023-10-09T08:53:55;101006.31;;;13.97;97.37
70011;BME280;59543;37.950;-122.338;2023-10-09T08:56:22;101013.28;;;14.08;96.92
70011;BME280;59543;37.950;-122.338;2023-10-09T08:58:53;101011.97;;;14.20;96.40
70011;BME280;59543;37.950;-122.338;2023-10-09T09:01:20;101008.41;;;14.28;95.75
70011;BME280;59543;37.950;-122.338;2023-10-09T09:03:51;101005.22;;;14.32;94.51
70011;BME280;59543;37.950;-122.338;2023-10-09T09:06:18;101015.38;;;14.38;94.29
70011;BME280;59543;37.950;-122.338;2023-10-09T09:08:46;101012.00;;;14.36;94.74
70011;BME280;59543;37.950;-122.338;2023-10-09T09:11:14;101013.00;;;14.35;94.81
70011;BME280;59543;37.950;-122.338;2023-10-09T09:13:47;101003.88;;;14.45;94.80
70011;BME280;59543;37.950;-122.338;2023-10-09T09:19:03;101013.66;;;14.37;94.78
70011;BME280;59543;37.950;-122.338;2023-10-09T09:21:49;101013.19;;;14.42;94.51
70011;BME280;59543;37.950;-122.338;2023-10-09T09:24:20;101009.28;;;14.45;94.40
70011;BME280;59543;37.950;-122.338;2023-10-09T09:26:47;101014.72;;;14.45;93.83
70011;BME280;59543;37.950;-122.338;2023-10-09T09:29:42;101018.63;;;14.50;93.70
70011;BME280;59543;37.950;-122.338;2023-10-09T09:32:27;101010.66;;;14.49;94.07
70011;BME280;59543;37.950;-122.338;2023-10-09T09:35:01;101009.97;;;14.47;94.76
70011;BME280;59543;37.950;-122.338;2023-10-09T09:37:34;101004.88;;;14.44;94.98
70011;BME280;59543;37.950;-122.338;2023-10-09T09:40:02;100993.06;;;14.45;95.07
70011;BME280;59543;37.950;-122.338;2023-10-09T09:42:44;100985.59;;;14.47;95.02
70011;BME280;59543;37.950;-122.338;2023-10-09T09:45:17;100987.50;;;14.62;93.46
70011;BME280;59543;37.950;-122.338;2023-10-09T09:47:49;100979.41;;;14.62;93.43
70011;BME280;59543;37.950;-122.338;2023-10-09T09:50:19;100975.84;;;14.54;93.69
70011;BME280;59543;37.950;-122.338;2023-10-09T09:52:54;100972.94;;;14.55;93.68
70011;BME280;59543;37.950;-122.338;2023-10-09T09:55:26;100964.63;;;14.49;93.35
70011;BME280;59543;37.950;-122.338;2023-10-09T09:57:58;100965.84;;;14.54;93.02
70011;BME280;59543;37.950;-122.338;2023-10-09T10:00:29;100960.78;;;14.51;92.79
70011;BME280;59543;37.950;-122.338;2023-10-09T10:03:30;100956.69;;;14.47;93.58
70011;BME280;59543;37.950;-122.338;2023-10-09T10:05:55;100951.44;;;14.46;93.68
70011;BME280;59543;37.950;-122.338;2023-10-09T10:08:24;100953.66;;;14.58;92.60
70011;BME280;59543;37.950;-122.338;2023-10-09T10:11:00;100959.41;;;14.63;92.00
70011;BME280;59543;37.950;-122.338;2023-10-09T10:16:13;100974.44;;;14.50;92.21
70011;BME280;59543;37.950;-122.338;2023-10-09T10:19:04;100989.84;;;14.49;91.70
70011;BME280;59543;37.950;-122.338;2023-10-09T10:21:48;100979.84;;;14.50;91.84
70011;BME280;59543;37.950;-122.338;2023-10-09T10:32:54;100969.25;;;14.56;90.92
70011;BME280;59543;37.950;-122.338;2023-10-09T10:35:23;100974.47;;;14.58;91.27
70011;BME280;59543;37.950;-122.338;2023-10-09T10:40:50;100981.25;;;14.54;91.39
70011;BME280;59543;37.950;-122.338;2023-10-09T10:43:24;100986.50;;;14.63;91.51
70011;BME280;59543;37.950;-122.338;2023-10-09T10:46:08;100997.66;;;14.52;92.04
70011;BME280;59543;37.950;-122.338;2023-10-09T10:49:07;100990.03;;;14.64;91.83
70011;BME280;59543;37.950;-122.338;2023-10-09T10:51:41;101001.19;;;14.61;92.75
70011;BME280;59543;37.950;-122.338;2023-10-09T10:54:21;101004.09;;;14.59;92.24
70011;BME280;59543;37.950;-122.338;2023-10-09T10:57:03;100999.81;;;14.49;92.46
70011;BME280;59543;37.950;-122.338;2023-10-09T10:59:39;100984.94;;;14.53;91.50
70011;BME280;59543;37.950;-122.338;2023-10-09T11:02:11;100980.56;;;14.60;90.79
70011;BME280;59543;37.950;-122.338;2023-10-09T11:04:38;100978.16;;;14.49;91.52
70011;BME280;59543;37.950;-122.338;2023-10-09T11:07:08;100988.84;;;14.50;91.60
70011;BME280;59543;37.950;-122.338;2023-10-09T11:15:12;100989.84;;;14.49;92.42
70011;BME280;59543;37.950;-122.338;2023-10-09T11:18:01;100993.56;;;14.48;93.20
70011;BME280;59543;37.950;-122.338;2023-10-09T11:20:34;100989.69;;;14.51;92.83
70011;BME280;59543;37.950;-122.338;2023-10-09T11:23:01;100973.63;;;14.57;92.31
70011;BME280;59543;37.950;-122.338;2023-10-09T11:25:38;100968.88;;;14.68;91.30
70011;BME280;59543;37.950;-122.338;2023-10-09T11:28:22;100957.88;;;14.53;92.39
70011;BME280;59543;37.950;-122.338;2023-10-09T11:31:11;100955.72;;;14.56;92.11
70011;BME280;59543;37.950;-122.338;2023-10-09T11:33:48;100947.59;;;14.56;91.05
70011;BME280;59543;37.950;-122.338;2023-10-09T11:36:18;100943.84;;;14.57;90.49
70011;BME280;59543;37.950;-122.338;2023-10-09T11:39:04;100942.81;;;14.58;90.84
70011;BME280;59543;37.950;-122.338;2023-10-09T11:41:43;100939.78;;;14.61;90.70
70011;BME280;59543;37.950;-122.338;2023-10-09T11:44:15;100931.50;;;14.63;90.28
70011;BME280;59543;37.950;-122.338;2023-10-09T11:47:01;100923.88;;;14.58;91.17
70011;BME280;59543;37.950;-122.338;2023-10-09T11:49:52;100920.66;;;14.71;90.75
70011;BME280;59543;37.950;-122.338;2023-10-09T11:52:24;100929.63;;;14.63;90.68
70011;BME280;59543;37.950;-122.338;2023-10-09T11:55:22;100938.25;;;14.59;90.87
70011;BME280;59543;37.950;-122.338;2023-10-09T11:57:53;100929.28;;;14.58;90.63
70011;BME280;59543;37.950;-122.338;2023-10-09T12:00:21;100925.59;;;14.59;90.49
70011;BME280;59543;37.950;-122.338;2023-10-09T12:02:56;100928.44;;;14.58;90.15
70011;BME280;59543;37.950;-122.338;2023-10-09T12:05:31;100936.22;;;14.69;89.71
70011;BME280;59543;37.950;-122.338;2023-10-09T12:07:59;100931.84;;;14.68;89.83
70011;BME280;59543;37.950;-122.338;2023-10-09T12:10:27;100929.44;;;14.73;89.38
70011;BME280;59543;37.950;-122.338;2023-10-09T12:12:55;100939.97;;;14.68;89.47
70011;BME280;59543;37.950;-122.338;2023-10-09T12:15:25;100926.91;;;14.72;89.70
70011;BME280;59543;37.950;-122.338;2023-10-09T12:18:04;100914.72;;;14.76;89.22
70011;BME280;59543;37.950;-122.338;2023-10-09T12:20:32;100914.38;;;14.71;88.95
70011;BME280;59543;37.950;-122.338;2023-10-09T12:23:01;100913.03;;;14.67;89.41
70011;BME280;59543;37.950;-122.338;2023-10-09T12:25:31;100919.63;;;14.72;89.12
70011;BME280;59543;37.950;-122.338;2023-10-09T12:28:01;100905.75;;;14.67;90.02
70011;BME280;59543;37.950;-122.338;2023-10-09T12:30:31;100910.19;;;14.68;90.39
70011;BME280;59543;37.950;-122.338;2023-10-09T12:33:03;100919.31;;;14.67;90.34
70011;BME280;59543;37.950;-122.338;2023-10-09T12:35:30;100909.81;;;14.79;89.99
70011;BME280;59543;37.950;-122.338;2023-10-09T12:37:59;100907.44;;;14.84;90.11
70011;BME280;59543;37.950;-122.338;2023-10-09T12:40:26;100907.28;;;14.70;91.23
70011;BME280;59543;37.950;-122.338;2023-10-09T12:42:57;100907.13;;;14.71;90.99
70011;BME280;59543;37.950;-122.338;2023-10-09T12:45:26;100905.91;;;14.90;89.67
70011;BME280;59543;37.950;-122.338;2023-10-09T12:47:58;100902.50;;;14.88;89.67
70011;BME280;59543;37.950;-122.338;2023-10-09T12:50:29;100903.53;;;14.87;89.87
70011;BME280;59543;37.950;-122.338;2023-10-09T12:52:56;100908.94;;;14.87;88.87
70011;BME280;59543;37.950;-122.338;2023-10-09T12:55:30;100915.03;;;14.89;88.59
70011;BME280;59543;37.950;-122.338;2023-10-09T12:58:01;100903.88;;;14.76;89.83
70011;BME280;59543;37.950;-122.338;2023-10-09T13:00:37;100919.09;;;14.77;89.84
70011;BME280;59543;37.950;-122.338;2023-10-09T13:03:10;100927.75;;;14.80;89.57
70011;BME280;59543;37.950;-122.338;2023-10-09T13:05:44;100904.91;;;14.75;89.67
70011;BME280;59543;37.950;-122.338;2023-10-09T13:08:25;100900.50;;;14.74;89.83
70011;BME280;59543;37.950;-122.338;2023-10-09T13:11:06;100897.63;;;14.67;89.69
70011;BME280;59543;37.950;-122.338;2023-10-09T13:13:43;100896.78;;;14.75;89.31
70011;BME280;59543;37.950;-122.338;2023-10-09T13:16:14;100908.28;;;14.77;89.30
70011;BME280;59543;37.950;-122.338;2023-10-09T13:18:58;100903.75;;;14.69;89.74
70011;BME280;59543;37.950;-122.338;2023-10-09T13:21:35;100892.22;;;14.75;89.29
70011;BME280;59543;37.950;-122.338;2023-10-09T13:24:06;100898.81;;;14.73;89.32
70011;BME280;59543;37.950;-122.338;2023-10-09T13:26:40;100891.53;;;14.73;89.82
70011;BME280;59543;37.950;-122.338;2023-10-09T13:29:07;100888.19;;;14.71;89.94
70011;BME280;59543;37.950;-122.338;2023-10-09T13:31:38;100910.16;;;14.76;89.87
70011;BME280;59543;37.950;-122.338;2023-10-09T13:34:06;100920.66;;;14.63;91.13